sensor_id;sensor_type;location;lat;lon;timestamp;temperature;humidity
4637;DHT22;2331;48.806;9.140;2023-12-04T00:00:27;0.50;1.00
4637;DHT22;2331;48.806;9.140;2023-12-04T00:02:55;0.40;1.00
4637;DHT22;2331;48.806;9.140;2023-12-04T00:05:22;0.40;1.00
4637;DHT22;2331;48.806;9.140;2023-12-04T00:07:48;0.40;1.00
4637;DHT22;2331;48.806;9.140;2023-12-04T00:10:15;0.40;1.00
4637;DHT22;2331;48.806;9.140;2023-12-04T00:12:42;0.40;1.00
4637;DHT22;2331;48.806;9.140;2023-12-04T00:15:09;0.40;1.00
4637;DHT22;2331;48.806;9.140;2023-12-04T00:17:36;0.30;1.00
4637;DHT22;2331;48.806;9.140;2023-12-04T00:20:08;0.30;1.00
4637;DHT22;2331;48.806;9.140;2023-12-04T00:22:35;0.20;1.00
4637;DHT22;2331;48.806;9.140;2023-12-04T00:25:01;0.20;1.00
4637;DHT22;2331;48.806;9.140;2023-12-04T00:27:28;0.20;1.00
4637;DHT22;2331;48.806;9.140;2023-12-04T00:29:55;0.20;1.00
4637;DHT22;2331;48.806;9.140;2023-12-04T00:32:22;0.10;1.00
4637;DHT22;2331;48.806;9.140;2023-12-04T00:34:48;0.10;1.00
4637;DHT22;2331;48.806;9.140;2023-12-04T00:37:16;0.10;1.00
4637;DHT22;2331;48.806;9.140;2023-12-04T00:39:43;0.00;1.00
4637;DHT22;2331;48.806;9.140;2023-12-04T00:42:10;0.10;1.00
4637;DHT22;2331;48.806;9.140;2023-12-04T00:44:36;0.00;1.00
4637;DHT22;2331;48.806;9.140;2023-12-04T00:47:03;0.00;1.00
4637;DHT22;2331;48.806;9.140;2023-12-04T00:49:30;0.00;1.00
4637;DHT22;2331;48.806;9.140;2023-12-04T00:51:57;0.00;1.00
4637;DHT22;2331;48.806;9.140;2023-12-04T00:54:25;0.00;1.00
4637;DHT22;2331;48.806;9.140;2023-12-04T00:56:51;-0.10;1.00
4637;DHT22;2331;48.806;9.140;2023-12-04T00:59:18;-0.10;1.00
4637;DHT22;2331;48.806;9.140;2023-12-04T01:01:45;-0.10;1.00
4637;DHT22;2331;48.806;9.140;2023-12-04T01:04:12;-0.10;1.00
4637;DHT22;2331;48.806;9.140;2023-12-04T01:06:38;-0.10;1.00
4637;DHT22;2331;48.806;9.140;2023-12-04T01:09:05;-0.20;1.00
4637;DHT22;2331;48.806;9.140;2023-12-04T01:11:33;-0.10;1.00
4637;DHT22;2331;48.806;9.140;2023-12-04T01:14:02;-0.10;1.00
4637;DHT22;2331;48.806;9.140;2023-12-04T01:16:28;-0.10;1.00
4637;DHT22;2331;48.806;9.140;2023-12-04T01:18:56;-0.20;1.00
4637;DHT22;2331;48.806;9.140;2023-12-04T01:21:23;-0.20;1.00
4637;DHT22;2331;48.806;9.140;2023-12-04T01:23:49;-0.20;1.00
4637;DHT22;2331;48.806;9.140;2023-12-04T01:26:16;-0.10;1.00
4637;DHT22;2331;48.806;9.140;2023-12-04T01:28:44;-0.10;1.00
4637;DHT22;2331;48.806;9.140;2023-12-04T01:31:11;-0.10;1.00
4637;DHT22;2331;48.806;9.140;2023-12-04T01:33:37;-0.10;1.00
4637;DHT22;2331;48.806;9.140;2023-12-04T01:36:05;-0.10;1.00
4637;DHT22;2331;48.806;9.140;2023-12-04T01:38:32;-0.10;1.00
4637;DHT22;2331;48.806;9.140;2023-12-04T01:40:58;-0.10;1.00
4637;DHT22;2331;48.806;9.140;2023-12-04T01:43:25;0.00;1.00
4637;DHT22;2331;48.806;9.140;2023-12-04T01:45:55;-0.10;1.00
4637;DHT22;2331;48.806;9.140;2023-12-04T01:48:23;-0.10;1.00
4637;DHT22;2331;48.806;9.140;2023-12-04T01:50:50;-0.20;1.00
4637;DHT22;2331;48.806;9.140;2023-12-04T01:53:17;-0.20;1.00
4637;DHT22;2331;48.806;9.140;2023-12-04T01:55:44;-0.20;1.00
4637;DHT22;2331;48.806;9.140;2023-12-04T01:58:11;-0.20;1.00
4637;DHT22;2331;48.806;9.140;2023-12-04T02:00:38;-0.20;1.00
4637;DHT22;2331;48.806;9.140;2023-12-04T02:03:08;-0.20;1.00
4637;DHT22;2331;48.806;9.140;2023-12-04T02:05:37;-0.20;1.00
4637;DHT22;2331;48.806;9.140;2023-12-04T02:08:04;-0.20;1.00
4637;DHT22;2331;48.806;9.140;2023-12-04T02:10:31;-0.10;1.00
4637;DHT22;2331;48.806;9.140;2023-12-04T02:12:57;-0.10;1.00
4637;DHT22;2331;48.806;9.140;2023-12-04T02:15:24;-0.10;1.00
4637;DHT22;2331;48.806;9.140;2023-12-04T02:17:53;-0.10;1.00
4637;DHT22;2331;48.806;9.140;2023-12-04T02:20:31;0.00;1.00
4637;DHT22;2331;48.806;9.140;2023-12-04T02:22:57;-0.10;1.00
4637;DHT22;2331;48.806;9.140;2023-12-04T02:25:25;-0.20;1.00
4637;DHT22;2331;48.806;9.140;2023-12-04T02:27:54;-0.20;1.00
4637;DHT22;2331;48.806;9.140;2023-12-04T02:30:23;-0.20;1.00
4637;DHT22;2331;48.806;9.140;2023-12-04T02:32:51;-0.30;1.00
4637;DHT22;2331;48.806;9.140;2023-12-04T02:35:21;-0.20;1.00
4637;DHT22;2331;48.806;9.140;2023-12-04T02:37:48;-0.20;1.00
4637;DHT22;2331;48.806;9.140;2023-12-04T02:40:15;-0.20;1.00
4637;DHT22;2331;48.806;9.140;2023-12-04T02:42:44;-0.20;1.00
4637;DHT22;2331;48.806;9.140;2023-12-04T02:45:11;-0.10;1.00
4637;DHT22;2331;48.806;9.140;2023-12-04T02:47:37;-0.10;1.00
4637;DHT22;2331;48.806;9.140;2023-12-04T02:50:05;-0.10;1.00
4637;DHT22;2331;48.806;9.140;2023-12-04T02:52:32;-0.10;1.00
4637;DHT22;2331;48.806;9.140;2023-12-04T02:54:58;-0.10;1.00
4637;DHT22;2331;48.806;9.140;2023-12-04T02:57:25;-0.10;1.00
4637;DHT22;2331;48.806;9.140;2023-12-04T02:59:53;-0.10;1.00
4637;DHT22;2331;48.806;9.140;2023-12-04T03:02:20;-0.10;1.00
4637;DHT22;2331;48.806;9.140;2023-12-04T03:04:46;-0.10;1.00
4637;DHT22;2331;48.806;9.140;2023-12-04T03:07:13;-0.10;1.00
4637;DHT22;2331;48.806;9.140;2023-12-04T03:09:40;-0.10;1.00
4637;DHT22;2331;48.806;9.140;2023-12-04T03:12:06;-0.10;1.00
4637;DHT22;2331;48.806;9.140;2023-12-04T03:14:33;-0.10;1.00
4637;DHT22;2331;48.806;9.140;2023-12-04T03:17:01;-0.10;1.00
4637;DHT22;2331;48.806;9.140;2023-12-04T03:19:28;-0.10;1.00
4637;DHT22;2331;48.806;9.140;2023-12-04T03:21:54;-0.10;1.00
4637;DHT22;2331;48.806;9.140;2023-12-04T03:24:21;-0.10;1.00
4637;DHT22;2331;48.806;9.140;2023-12-04T03:26:48;-0.10;1.00
4637;DHT22;2331;48.806;9.140;2023-12-04T03:29:14;-0.10;1.00
4637;DHT22;2331;48.806;9.140;2023-12-04T03:31:41;-0.10;1.00
4637;DHT22;2331;48.806;9.140;2023-12-04T03:34:09;0.00;1.00
4637;DHT22;2331;48.806;9.140;2023-12-04T03:36:36;-0.10;1.00
4637;DHT22;2331;48.806;9.140;2023-12-04T03:39:02;-0.10;1.00
4637;DHT22;2331;48.806;9.140;2023-12-04T03:41:29;0.00;1.00
4637;DHT22;2331;48.806;9.140;2023-12-04T03:43:56;-0.10;1.00
4637;DHT22;2331;48.806;9.140;2023-12-04T03:46:23;-0.10;1.00
4637;DHT22;2331;48.806;9.140;2023-12-04T03:48:49;-0.10;1.00
4637;DHT22;2331;48.806;9.140;2023-12-04T03:51:17;-0.10;1.00
4637;DHT22;2331;48.806;9.140;2023-12-04T03:53:44;-0.10;1.00
4637;DHT22;2331;48.806;9.140;2023-12-04T03:56:11;-0.10;1.00
4637;DHT22;2331;48.806;9.140;2023-12-04T03:58:38;-0.10;1.00
4637;DHT22;2331;48.806;9.140;2023-12-04T04:01:06;-0.10;1.00
4637;DHT22;2331;48.806;9.140;2023-12-04T04:03:33;-0.10;1.00
4637;DHT22;2331;48.806;9.140;2023-12-04T04:05:59;-0.10;1.00
4637;DHT22;2331;48.806;9.140;2023-12-04T04:08:27;-0.10;1.00
4637;DHT22;2331;48.806;9.140;2023-12-04T04:10:54;-0.10;1.00
4637;DHT22;2331;48.806;9.140;2023-12-04T04:13:21;-0.10;1.00
4637;DHT22;2331;48.806;9.140;2023-12-04T04:15:47;-0.10;1.00
4637;DHT22;2331;48.806;9.140;2023-12-04T04:18:14;-0.10;1.00
4637;DHT22;2331;48.806;9.140;2023-12-04T04:20:41;0.00;1.00
4637;DHT22;2331;48.806;9.140;2023-12-04T04:23:07;0.00;1.00
4637;DHT22;2331;48.806;9.140;2023-12-04T04:25:35;0.00;1.00
4637;DHT22;2331;48.806;9.140;2023-12-04T04:28:02;0.00;1.00
4637;DHT22;2331;48.806;9.140;2023-12-04T04:30:29;-0.10;1.00
4637;DHT22;2331;48.806;9.140;2023-12-04T04:32:55;-0.10;1.00
4637;DHT22;2331;48.806;9.140;2023-12-04T04:35:22;0.00;1.00
4637;DHT22;2331;48.806;9.140;2023-12-04T04:37:50;0.00;1.00
4637;DHT22;2331;48.806;9.140;2023-12-04T04:40:16;-0.10;1.00
4637;DHT22;2331;48.806;9.140;2023-12-04T04:42:44;-0.10;1.00
4637;DHT22;2331;48.806;9.140;2023-12-04T04:45:11;-0.10;1.00
4637;DHT22;2331;48.806;9.140;2023-12-04T04:47:38;-0.10;1.00
4637;DHT22;2331;48.806;9.140;2023-12-04T04:50:05;-0.10;1.00
4637;DHT22;2331;48.806;9.140;2023-12-04T04:52:32;-0.10;1.00
4637;DHT22;2331;48.806;9.140;2023-12-04T04:54:59;-0.10;1.00
4637;DHT22;2331;48.806;9.140;2023-12-04T04:57:26;-0.10;1.00
4637;DHT22;2331;48.806;9.140;2023-12-04T04:59:54;0.00;1.00
4637;DHT22;2331;48.806;9.140;2023-12-04T05:02:20;0.00;1.00
4637;DHT22;2331;48.806;9.140;2023-12-04T05:04:47;0.00;1.00
4637;DHT22;2331;48.806;9.140;2023-12-04T05:07:14;0.00;1.00
4637;DHT22;2331;48.806;9.140;2023-12-04T05:09:40;0.00;1.00
4637;DHT22;2331;48.806;9.140;2023-12-04T05:12:07;0.00;1.00
4637;DHT22;2331;48.806;9.140;2023-12-04T05:14:34;0.00;1.00
4637;DHT22;2331;48.806;9.140;2023-12-04T05:17:02;0.00;1.00
4637;DHT22;2331;48.806;9.140;2023-12-04T05:19:29;0.00;1.00
4637;DHT22;2331;48.806;9.140;2023-12-04T05:21:55;0.00;1.00
4637;DHT22;2331;48.806;9.140;2023-12-04T05:24:22;0.00;1.00
4637;DHT22;2331;48.806;9.140;2023-12-04T05:26:49;0.00;1.00
4637;DHT22;2331;48.806;9.140;2023-12-04T05:29:15;0.00;1.00
4637;DHT22;2331;48.806;9.140;2023-12-04T05:31:42;0.00;1.00
4637;DHT22;2331;48.806;9.140;2023-12-04T05:34:10;0.00;1.00
4637;DHT22;2331;48.806;9.140;2023-12-04T05:36:37;0.00;1.00
4637;DHT22;2331;48.806;9.140;2023-12-04T05:39:03;0.00;1.00
4637;DHT22;2331;48.806;9.140;2023-12-04T05:41:30;0.00;1.00
4637;DHT22;2331;48.806;9.140;2023-12-04T05:43:57;0.00;1.00
4637;DHT22;2331;48.806;9.140;2023-12-04T05:46:24;0.00;1.00
4637;DHT22;2331;48.806;9.140;2023-12-04T05:48:51;0.00;1.00
4637;DHT22;2331;48.806;9.140;2023-12-04T05:51:18;0.00;1.00
4637;DHT22;2331;48.806;9.140;2023-12-04T05:53:45;0.00;1.00
4637;DHT22;2331;48.806;9.140;2023-12-04T05:56:12;0.00;1.00
4637;DHT22;2331;48.806;9.140;2023-12-04T05:58:38;0.00;1.00
4637;DHT22;2331;48.806;9.140;2023-12-04T06:01:05;0.10;1.00
4637;DHT22;2331;48.806;9.140;2023-12-04T06:03:32;0.10;1.00
4637;DHT22;2331;48.806;9.140;2023-12-04T06:05:59;0.10;1.00
4637;DHT22;2331;48.806;9.140;2023-12-04T06:08:27;0.10;1.00
4637;DHT22;2331;48.806;9.140;2023-12-04T06:10:54;0.00;1.00
4637;DHT22;2331;48.806;9.140;2023-12-04T06:13:20;0.00;1.00
4637;DHT22;2331;48.806;9.140;2023-12-04T06:15:47;0.00;1.00
4637;DHT22;2331;48.806;9.140;2023-12-04T06:18:14;0.00;1.00
4637;DHT22;2331;48.806;9.140;2023-12-04T06:20:40;0.10;1.00
4637;DHT22;2331;48.806;9.140;2023-12-04T06:23:07;0.10;1.00
4637;DHT22;2331;48.806;9.140;2023-12-04T06:25:36;0.10;1.00
4637;DHT22;2331;48.806;9.140;2023-12-04T06:28:04;0.10;1.00
4637;DHT22;2331;48.806;9.140;2023-12-04T06:30:31;0.10;1.00
4637;DHT22;2331;48.806;9.140;2023-12-04T06:32:58;0.10;1.00
4637;DHT22;2331;48.806;9.140;2023-12-04T06:35:25;0.10;1.00
4637;DHT22;2331;48.806;9.140;2023-12-04T06:37:53;0.10;1.00
4637;DHT22;2331;48.806;9.140;2023-12-04T06:40:21;0.10;1.00
4637;DHT22;2331;48.806;9.140;2023-12-04T06:42:50;0.20;1.00
4637;DHT22;2331;48.806;9.140;2023-12-04T06:45:18;0.20;1.00
4637;DHT22;2331;48.806;9.140;2023-12-04T06:47:46;0.10;1.00
4637;DHT22;2331;48.806;9.140;2023-12-04T06:50:15;0.10;1.00
4637;DHT22;2331;48.806;9.140;2023-12-04T06:52:41;0.10;1.00
4637;DHT22;2331;48.806;9.140;2023-12-04T06:55:08;0.10;1.00
4637;DHT22;2331;48.806;9.140;2023-12-04T06:57:35;0.10;1.00
4637;DHT22;2331;48.806;9.140;2023-12-04T07:00:04;0.10;1.00
4637;DHT22;2331;48.806;9.140;2023-12-04T07:02:32;0.10;1.00
4637;DHT22;2331;48.806;9.140;2023-12-04T07:04:58;0.10;1.00
4637;DHT22;2331;48.806;9.140;2023-12-04T07:07:25;0.10;1.00
4637;DHT22;2331;48.806;9.140;2023-12-04T07:09:51;0.10;1.00
4637;DHT22;2331;48.806;9.140;2023-12-04T07:12:18;0.20;1.00
4637;DHT22;2331;48.806;9.140;2023-12-04T07:14:45;0.20;1.00
4637;DHT22;2331;48.806;9.140;2023-12-04T07:17:13;0.20;1.00
4637;DHT22;2331;48.806;9.140;2023-12-04T07:19:41;0.20;1.00
4637;DHT22;2331;48.806;9.140;2023-12-04T07:22:07;0.10;1.00
4637;DHT22;2331;48.806;9.140;2023-12-04T07:24:34;0.10;1.00
4637;DHT22;2331;48.806;9.140;2023-12-04T07:27:01;0.10;1.00
4637;DHT22;2331;48.806;9.140;2023-12-04T07:29:27;0.10;1.00
4637;DHT22;2331;48.806;9.140;2023-12-04T07:31:54;0.20;1.00
4637;DHT22;2331;48.806;9.140;2023-12-04T07:34:22;0.10;1.00
4637;DHT22;2331;48.806;9.140;2023-12-04T07:36:49;0.20;1.00
4637;DHT22;2331;48.806;9.140;2023-12-04T07:39:16;0.10;1.00
4637;DHT22;2331;48.806;9.140;2023-12-04T07:41:42;0.20;1.00
4637;DHT22;2331;48.806;9.140;2023-12-04T07:44:09;0.20;1.00
4637;DHT22;2331;48.806;9.140;2023-12-04T07:46:36;0.20;1.00
4637;DHT22;2331;48.806;9.140;2023-12-04T07:49:02;0.20;1.00
4637;DHT22;2331;48.806;9.140;2023-12-04T07:51:30;0.20;1.00
4637;DHT22;2331;48.806;9.140;2023-12-04T07:53:58;0.30;1.00
4637;DHT22;2331;48.806;9.140;2023-12-04T07:56:24;0.30;1.00
4637;DHT22;2331;48.806;9.140;2023-12-04T07:58:51;0.30;1.00
4637;DHT22;2331;48.806;9.140;2023-12-04T08:01:18;0.30;1.00
4637;DHT22;2331;48.806;9.140;2023-12-04T08:03:44;0.30;1.00
4637;DHT22;2331;48.806;9.140;2023-12-04T08:06:11;0.30;1.00
4637;DHT22;2331;48.806;9.140;2023-12-04T08:08:39;0.40;1.00
4637;DHT22;2331;48.806;9.140;2023-12-04T08:11:09;0.40;1.00
4637;DHT22;2331;48.806;9.140;2023-12-04T08:13:36;0.40;1.00
4637;DHT22;2331;48.806;9.140;2023-12-04T08:16:04;0.40;1.00
4637;DHT22;2331;48.806;9.140;2023-12-04T08:18:31;0.40;1.00
4637;DHT22;2331;48.806;9.140;2023-12-04T08:21:00;0.40;1.00
4637;DHT22;2331;48.806;9.140;2023-12-04T08:23:26;0.40;1.00
4637;DHT22;2331;48.806;9.140;2023-12-04T08:25:55;0.40;1.00
4637;DHT22;2331;48.806;9.140;2023-12-04T08:28:22;0.40;1.00
4637;DHT22;2331;48.806;9.140;2023-12-04T08:30:49;0.40;1.00
4637;DHT22;2331;48.806;9.140;2023-12-04T08:33:15;0.50;1.00
4637;DHT22;2331;48.806;9.140;2023-12-04T08:35:43;0.50;1.00
4637;DHT22;2331;48.806;9.140;2023-12-04T08:38:10;0.50;1.00
4637;DHT22;2331;48.806;9.140;2023-12-04T08:40:37;0.50;1.00
4637;DHT22;2331;48.806;9.140;2023-12-04T08:43:05;0.50;1.00
4637;DHT22;2331;48.806;9.140;2023-12-04T08:45:31;0.50;1.00
4637;DHT22;2331;48.806;9.140;2023-12-04T08:47:59;0.60;1.00
4637;DHT22;2331;48.806;9.140;2023-12-04T08:50:25;0.50;1.00
4637;DHT22;2331;48.806;9.140;2023-12-04T08:52:52;0.50;1.00
4637;DHT22;2331;48.806;9.140;2023-12-04T08:55:19;0.60;1.00
4637;DHT22;2331;48.806;9.140;2023-12-04T08:57:46;0.70;1.00
4637;DHT22;2331;48.806;9.140;2023-12-04T09:00:15;0.70;1.00
4637;DHT22;2331;48.806;9.140;2023-12-04T09:02:41;0.70;1.00
4637;DHT22;2331;48.806;9.140;2023-12-04T09:05:08;0.70;1.00
4637;DHT22;2331;48.806;9.140;2023-12-04T09:07:35;0.70;1.00
4637;DHT22;2331;48.806;9.140;2023-12-04T09:10:02;0.80;1.00
4637;DHT22;2331;48.806;9.140;2023-12-04T09:12:29;0.80;1.00
4637;DHT22;2331;48.806;9.140;2023-12-04T09:14:55;0.80;1.00
4637;DHT22;2331;48.806;9.140;2023-12-04T09:17:23;0.80;1.00
4637;DHT22;2331;48.806;9.140;2023-12-04T09:19:50;0.80;1.00
4637;DHT22;2331;48.806;9.140;2023-12-04T09:22:17;0.80;1.00
4637;DHT22;2331;48.806;9.140;2023-12-04T09:24:43;0.90;1.00
4637;DHT22;2331;48.806;9.140;2023-12-04T09:27:10;0.80;1.00
4637;DHT22;2331;48.806;9.140;2023-12-04T09:29:37;0.80;1.00
4637;DHT22;2331;48.806;9.140;2023-12-04T09:32:04;0.90;1.00
4637;DHT22;2331;48.806;9.140;2023-12-04T09:34:32;0.90;1.00
4637;DHT22;2331;48.806;9.140;2023-12-04T09:36:59;0.90;1.00
4637;DHT22;2331;48.806;9.140;2023-12-04T09:39:25;1.00;1.00
4637;DHT22;2331;48.806;9.140;2023-12-04T09:41:52;1.00;1.00
4637;DHT22;2331;48.806;9.140;2023-12-04T09:44:20;1.00;1.00
4637;DHT22;2331;48.806;9.140;2023-12-04T09:46:48;1.10;1.00
4637;DHT22;2331;48.806;9.140;2023-12-04T09:49:15;1.10;1.00
4637;DHT22;2331;48.806;9.140;2023-12-04T09:51:45;1.10;1.00
4637;DHT22;2331;48.806;9.140;2023-12-04T09:54:12;1.10;1.00
4637;DHT22;2331;48.806;9.140;2023-12-04T09:56:39;1.20;1.00
4637;DHT22;2331;48.806;9.140;2023-12-04T09:59:06;1.20;1.00
4637;DHT22;2331;48.806;9.140;2023-12-04T10:01:35;1.20;1.00
4637;DHT22;2331;48.806;9.140;2023-12-04T10:04:02;1.20;1.00
4637;DHT22;2331;48.806;9.140;2023-12-04T10:06:31;1.20;1.00
4637;DHT22;2331;48.806;9.140;2023-12-04T10:08:59;1.20;1.00
4637;DHT22;2331;48.806;9.140;2023-12-04T10:11:25;1.20;1.00
4637;DHT22;2331;48.806;9.140;2023-12-04T10:13:54;1.30;1.00
4637;DHT22;2331;48.806;9.140;2023-12-04T10:16:34;1.30;1.00
4637;DHT22;2331;48.806;9.140;2023-12-04T10:19:25;1.30;1.00
4637;DHT22;2331;48.806;9.140;2023-12-04T10:21:54;1.30;1.00
4637;DHT22;2331;48.806;9.140;2023-12-04T10:24:30;1.40;1.00
4637;DHT22;2331;48.806;9.140;2023-12-04T10:26:57;1.40;1.00
4637;DHT22;2331;48.806;9.140;2023-12-04T10:29:27;1.50;1.00
4637;DHT22;2331;48.806;9.140;2023-12-04T10:31:54;1.50;1.00
4637;DHT22;2331;48.806;9.140;2023-12-04T10:34:21;1.50;1.00
4637;DHT22;2331;48.806;9.140;2023-12-04T10:36:51;1.60;1.00
4637;DHT22;2331;48.806;9.140;2023-12-04T10:39:18;1.60;1.00
4637;DHT22;2331;48.806;9.140;2023-12-04T10:41:59;1.70;1.00
4637;DHT22;2331;48.806;9.140;2023-12-04T10:44:26;1.60;1.00
4637;DHT22;2331;48.806;9.140;2023-12-04T10:46:54;1.70;1.00
4637;DHT22;2331;48.806;9.140;2023-12-04T10:49:25;1.70;1.00
4637;DHT22;2331;48.806;9.140;2023-12-04T10:51:53;1.70;1.00
4637;DHT22;2331;48.806;9.140;2023-12-04T10:54:21;1.80;1.00
4637;DHT22;2331;48.806;9.140;2023-12-04T10:56:52;1.80;1.00
4637;DHT22;2331;48.806;9.140;2023-12-04T10:59:28;1.90;1.00
4637;DHT22;2331;48.806;9.140;2023-12-04T11:02:00;1.90;1.00
4637;DHT22;2331;48.806;9.140;2023-12-04T11:04:28;2.00;1.00
4637;DHT22;2331;48.806;9.140;2023-12-04T11:06:59;2.00;1.00
4637;DHT22;2331;48.806;9.140;2023-12-04T11:09:29;2.00;1.00
4637;DHT22;2331;48.806;9.140;2023-12-04T11:12:01;2.00;1.00
4637;DHT22;2331;48.806;9.140;2023-12-04T11:14:44;2.10;1.00
4637;DHT22;2331;48.806;9.140;2023-12-04T11:17:14;2.00;1.00
4637;DHT22;2331;48.806;9.140;2023-12-04T11:19:50;2.10;1.00
4637;DHT22;2331;48.806;9.140;2023-12-04T11:22:19;2.10;1.00
4637;DHT22;2331;48.806;9.140;2023-12-04T11:24:47;2.10;1.00
4637;DHT22;2331;48.806;9.140;2023-12-04T11:27:16;2.10;1.00
4637;DHT22;2331;48.806;9.140;2023-12-04T11:29:45;2.10;1.00
4637;DHT22;2331;48.806;9.140;2023-12-04T11:32:14;2.10;1.00
4637;DHT22;2331;48.806;9.140;2023-12-04T11:34:47;2.20;1.00
4637;DHT22;2331;48.806;9.140;2023-12-04T11:37:14;2.20;1.00
4637;DHT22;2331;48.806;9.140;2023-12-04T11:39:41;2.30;1.00
4637;DHT22;2331;48.806;9.140;2023-12-04T11:42:09;2.30;1.00
4637;DHT22;2331;48.806;9.140;2023-12-04T11:44:41;2.40;1.00
4637;DHT22;2331;48.806;9.140;2023-12-04T11:47:07;2.40;1.00
4637;DHT22;2331;48.806;9.140;2023-12-04T11:49:34;2.40;1.00
4637;DHT22;2331;48.806;9.140;2023-12-04T11:52:03;2.50;1.00
4637;DHT22;2331;48.806;9.140;2023-12-04T11:54:57;2.50;1.00
4637;DHT22;2331;48.806;9.140;2023-12-04T11:57:25;2.50;1.00
4637;DHT22;2331;48.806;9.140;2023-12-04T12:00:08;2.60;1.00
4637;DHT22;2331;48.806;9.140;2023-12-04T12:02:35;2.60;1.00
4637;DHT22;2331;48.806;9.140;2023-12-04T12:05:01;2.60;1.00
4637;DHT22;2331;48.806;9.140;2023-12-04T12:07:28;2.60;1.00
4637;DHT22;2331;48.806;9.140;2023-12-04T12:09:55;2.60;1.00
4637;DHT22;2331;48.806;9.140;2023-12-04T12:12:22;2.70;1.00
4637;DHT22;2331;48.806;9.140;2023-12-04T12:14:51;2.70;1.00
4637;DHT22;2331;48.806;9.140;2023-12-04T12:17:19;2.70;1.00
4637;DHT22;2331;48.806;9.140;2023-12-04T12:19:45;2.70;1.00
4637;DHT22;2331;48.806;9.140;2023-12-04T12:22:13;2.70;1.00
4637;DHT22;2331;48.806;9.140;2023-12-04T12:24:39;2.70;1.00
4637;DHT22;2331;48.806;9.140;2023-12-04T12:27:06;2.80;1.00
4637;DHT22;2331;48.806;9.140;2023-12-04T12:29:33;2.80;1.00
4637;DHT22;2331;48.806;9.140;2023-12-04T12:31:59;2.70;1.00
4637;DHT22;2331;48.806;9.140;2023-12-04T12:34:27;2.70;1.00
4637;DHT22;2331;48.806;9.140;2023-12-04T12:36:54;2.70;1.00
4637;DHT22;2331;48.806;9.140;2023-12-04T12:39:21;2.80;1.00
4637;DHT22;2331;48.806;9.140;2023-12-04T12:41:48;2.80;1.00
4637;DHT22;2331;48.806;9.140;2023-12-04T12:44:15;2.80;1.00
4637;DHT22;2331;48.806;9.140;2023-12-04T12:46:46;2.80;1.00
4637;DHT22;2331;48.806;9.140;2023-12-04T12:49:14;2.80;1.00
4637;DHT22;2331;48.806;9.140;2023-12-04T12:51:42;2.80;1.00
4637;DHT22;2331;48.806;9.140;2023-12-04T12:54:08;2.80;1.00
4637;DHT22;2331;48.806;9.140;2023-12-04T12:56:35;2.80;1.00
4637;DHT22;2331;48.806;9.140;2023-12-04T12:59:02;2.80;1.00
4637;DHT22;2331;48.806;9.140;2023-12-04T13:01:30;2.80;1.00
4637;DHT22;2331;48.806;9.140;2023-12-04T13:03:57;2.80;1.00
4637;DHT22;2331;48.806;9.140;2023-12-04T13:06:24;2.80;1.00
4637;DHT22;2331;48.806;9.140;2023-12-04T13:08:52;2.80;1.00
4637;DHT22;2331;48.806;9.140;2023-12-04T13:11:18;2.90;1.00
4637;DHT22;2331;48.806;9.140;2023-12-04T13:13:45;2.90;1.00
4637;DHT22;2331;48.806;9.140;2023-12-04T13:16:12;2.90;1.00
4637;DHT22;2331;48.806;9.140;2023-12-04T13:18:38;2.90;1.00
4637;DHT22;2331;48.806;9.140;2023-12-04T13:21:05;2.90;1.00
4637;DHT22;2331;48.806;9.140;2023-12-04T13:23:35;2.90;1.00
4637;DHT22;2331;48.806;9.140;2023-12-04T13:26:04;2.90;1.00
4637;DHT22;2331;48.806;9.140;2023-12-04T13:28:31;3.00;1.00
4637;DHT22;2331;48.806;9.140;2023-12-04T13:30:57;3.00;1.00
4637;DHT22;2331;48.806;9.140;2023-12-04T13:33:24;3.00;1.00
4637;DHT22;2331;48.806;9.140;2023-12-04T13:35:51;3.10;1.00
4637;DHT22;2331;48.806;9.140;2023-12-04T13:38:18;3.10;1.00
4637;DHT22;2331;48.806;9.140;2023-12-04T13:40:44;3.10;1.00
4637;DHT22;2331;48.806;9.140;2023-12-04T13:43:26;3.10;1.00
4637;DHT22;2331;48.806;9.140;2023-12-04T13:46:10;3.10;1.00
4637;DHT22;2331;48.806;9.140;2023-12-04T13:48:37;3.10;1.00
4637;DHT22;2331;48.806;9.140;2023-12-04T13:51:06;3.10;1.00
4637;DHT22;2331;48.806;9.140;2023-12-04T13:53:33;3.10;1.00
4637;DHT22;2331;48.806;9.140;2023-12-04T13:56:00;3.10;1.00
4637;DHT22;2331;48.806;9.140;2023-12-04T13:58:51;3.00;1.00
4637;DHT22;2331;48.806;9.140;2023-12-04T14:01:22;3.00;1.00
4637;DHT22;2331;48.806;9.140;2023-12-04T14:03:51;3.00;1.00
4637;DHT22;2331;48.806;9.140;2023-12-04T14:06:17;3.10;1.00
4637;DHT22;2331;48.806;9.140;2023-12-04T14:08:44;3.10;1.00
4637;DHT22;2331;48.806;9.140;2023-12-04T14:11:11;3.10;1.00
4637;DHT22;2331;48.806;9.140;2023-12-04T14:13:40;3.10;1.00
4637;DHT22;2331;48.806;9.140;2023-12-04T14:16:09;3.10;1.00
4637;DHT22;2331;48.806;9.140;2023-12-04T14:18:36;3.10;1.00
4637;DHT22;2331;48.806;9.140;2023-12-04T14:21:03;3.10;1.00
4637;DHT22;2331;48.806;9.140;2023-12-04T14:23:30;3.00;1.00
4637;DHT22;2331;48.806;9.140;2023-12-04T14:25:57;3.00;1.00
4637;DHT22;2331;48.806;9.140;2023-12-04T14:28:24;3.00;1.00
4637;DHT22;2331;48.806;9.140;2023-12-04T14:30:51;3.00;1.00
4637;DHT22;2331;48.806;9.140;2023-12-04T14:33:19;3.10;1.00
4637;DHT22;2331;48.806;9.140;2023-12-04T14:35:45;3.00;1.00
4637;DHT22;2331;48.806;9.140;2023-12-04T14:38:12;3.00;1.00
4637;DHT22;2331;48.806;9.140;2023-12-04T14:40:40;3.10;1.00
4637;DHT22;2331;48.806;9.140;2023-12-04T14:43:06;3.10;1.00
4637;DHT22;2331;48.806;9.140;2023-12-04T14:45:35;3.10;1.00
4637;DHT22;2331;48.806;9.140;2023-12-04T14:48:02;3.10;1.00
4637;DHT22;2331;48.806;9.140;2023-12-04T14:50:33;3.10;1.00
4637;DHT22;2331;48.806;9.140;2023-12-04T14:53:00;3.10;1.00
4637;DHT22;2331;48.806;9.140;2023-12-04T14:55:41;3.10;1.00
4637;DHT22;2331;48.806;9.140;2023-12-04T14:58:36;3.10;1.00
4637;DHT22;2331;48.806;9.140;2023-12-04T15:01:39;3.10;1.00
4637;DHT22;2331;48.806;9.140;2023-12-04T15:04:22;3.10;1.00
4637;DHT22;2331;48.806;9.140;2023-12-04T15:07:28;3.10;1.00
4637;DHT22;2331;48.806;9.140;2023-12-04T15:10:21;3.20;1.00
4637;DHT22;2331;48.806;9.140;2023-12-04T15:13:17;3.10;1.00
4637;DHT22;2331;48.806;9.140;2023-12-04T15:16:10;3.10;1.00
4637;DHT22;2331;48.806;9.140;2023-12-04T15:18:54;3.00;1.00
4637;DHT22;2331;48.806;9.140;2023-12-04T15:21:53;3.10;1.00
4637;DHT22;2331;48.806;9.140;2023-12-04T15:24:20;3.10;1.00
4637;DHT22;2331;48.806;9.140;2023-12-04T15:26:47;3.10;1.00
4637;DHT22;2331;48.806;9.140;2023-12-04T15:29:13;3.10;1.00
4637;DHT22;2331;48.806;9.140;2023-12-04T15:31:43;3.00;1.00
4637;DHT22;2331;48.806;9.140;2023-12-04T15:34:10;3.00;1.00
4637;DHT22;2331;48.806;9.140;2023-12-04T15:36:37;3.10;1.00
4637;DHT22;2331;48.806;9.140;2023-12-04T15:39:04;3.10;1.00
4637;DHT22;2331;48.806;9.140;2023-12-04T15:41:31;3.10;1.00
4637;DHT22;2331;48.806;9.140;2023-12-04T15:43:57;3.10;1.00
4637;DHT22;2331;48.806;9.140;2023-12-04T15:46:24;3.10;1.00
4637;DHT22;2331;48.806;9.140;2023-12-04T15:48:52;3.10;1.00
4637;DHT22;2331;48.806;9.140;2023-12-04T15:51:20;3.10;1.00
4637;DHT22;2331;48.806;9.140;2023-12-04T15:53:46;3.10;1.00
4637;DHT22;2331;48.806;9.140;2023-12-04T15:56:13;3.10;1.00
4637;DHT22;2331;48.806;9.140;2023-12-04T15:58:39;3.10;1.00
4637;DHT22;2331;48.806;9.140;2023-12-04T16:01:06;3.20;1.00
4637;DHT22;2331;48.806;9.140;2023-12-04T16:03:32;3.20;1.00
4637;DHT22;2331;48.806;9.140;2023-12-04T16:05:59;3.20;1.00
4637;DHT22;2331;48.806;9.140;2023-12-04T16:08:27;3.20;1.00
4637;DHT22;2331;48.806;9.140;2023-12-04T16:10:54;3.20;1.00
4637;DHT22;2331;48.806;9.140;2023-12-04T16:13:20;3.20;1.00
4637;DHT22;2331;48.806;9.140;2023-12-04T16:15:47;3.20;1.00
4637;DHT22;2331;48.806;9.140;2023-12-04T16:18:14;3.20;1.00
4637;DHT22;2331;48.806;9.140;2023-12-04T16:20:41;3.20;1.00
4637;DHT22;2331;48.806;9.140;2023-12-04T16:23:08;3.20;1.00
4637;DHT22;2331;48.806;9.140;2023-12-04T16:25:36;3.20;1.00
4637;DHT22;2331;48.806;9.140;2023-12-04T16:28:03;3.20;1.00
4637;DHT22;2331;48.806;9.140;2023-12-04T16:30:32;3.20;1.00
4637;DHT22;2331;48.806;9.140;2023-12-04T16:32:59;3.20;1.00
4637;DHT22;2331;48.806;9.140;2023-12-04T16:35:25;3.20;1.00
4637;DHT22;2331;48.806;9.140;2023-12-04T16:37:54;3.20;1.00